createdAt,value
2022-09-15T00:00:09.086Z,94641.88
2022-09-15T00:02:35.737Z,94641.00
2022-09-15T00:05:02.283Z,94635.34
2022-09-15T00:07:28.955Z,94640.09
2022-09-15T00:09:55.526Z,94636.09
2022-09-15T00:12:22.079Z,94635.78
2022-09-15T00:14:48.616Z,94635.94
2022-09-15T00:17:15.239Z,94630.63
2022-09-15T00:19:41.776Z,94636.03
2022-09-15T00:22:08.320Z,94635.91
2022-09-15T00:24:35.990Z,94624.75
2022-09-15T00:27:02.784Z,94618.34
2022-09-15T00:29:29.378Z,94620.41
2022-09-15T00:31:55.988Z,94615.81
2022-09-15T00:34:22.534Z,94613.75
2022-09-15T00:36:49.082Z,94603.19
2022-09-15T00:39:15.655Z,94607.94
2022-09-15T00:41:42.367Z,94603.06
2022-09-15T00:44:36.991Z,94599.47
2022-09-15T00:47:21.836Z,94601.91
2022-09-15T00:49:58.792Z,94588.41
2022-09-15T00:52:57.664Z,94592.22
2022-09-15T00:55:32.296Z,94580.03
2022-09-15T00:58:06.826Z,94593.78
2022-09-15T01:00:34.529Z,94598.19
2022-09-15T01:03:02.072Z,94587.97
2022-09-15T01:05:34.723Z,94585.34
2022-09-15T01:08:30.973Z,94584.50
2022-09-15T01:10:58.001Z,94591.19
2022-09-15T01:13:25.253Z,94587.44
2022-09-15T01:16:31.808Z,94586.56
2022-09-15T01:19:00.904Z,94591.22
2022-09-15T01:21:36.600Z,94598.47
2022-09-15T01:24:44.023Z,94594.13
2022-09-15T01:27:42.474Z,94584.81
2022-09-15T01:30:20.782Z,94585.84
2022-09-15T01:33:26.556Z,94584.03
2022-09-15T01:36:01.943Z,94582.53
2022-09-15T01:38:55.162Z,94575.41
2022-09-15T01:41:26.365Z,94567.63
2022-09-15T01:44:07.102Z,94573.47
2022-09-15T01:46:39.554Z,94575.75
2022-09-15T01:49:10.379Z,94565.84
2022-09-15T01:51:39.638Z,94557.88
2022-09-15T01:54:07.717Z,94558.25
2022-09-15T01:56:37.321Z,94564.31
2022-09-15T01:59:04.148Z,94558.97
2022-09-15T02:01:44.662Z,94548.28
2022-09-15T02:04:29.698Z,94553.91
2022-09-15T02:07:31.231Z,94554.13
2022-09-15T02:10:32.731Z,94552.72
2022-09-15T02:13:39.204Z,94553.41
2022-09-15T02:16:16.636Z,94547.97
2022-09-15T02:18:58.742Z,94545.84
2022-09-15T02:21:34.724Z,94544.34
2022-09-15T02:24:07.768Z,94536.28
2022-09-15T02:26:37.206Z,94537.88
2022-09-15T02:29:07.555Z,94535.78
2022-09-15T02:31:38.123Z,94540.50
2022-09-15T02:34:11.042Z,94537.22
2022-09-15T02:36:38.242Z,94537.84
2022-09-15T02:39:08.598Z,94527.34
2022-09-15T02:41:36.630Z,94531.69
2022-09-15T02:44:03.825Z,94529.44
2022-09-15T02:46:30.462Z,94531.16
2022-09-15T02:48:57.071Z,94521.81
2022-09-15T02:51:23.723Z,94520.97
2022-09-15T02:53:50.480Z,94518.72
2022-09-15T02:56:18.140Z,94511.88
2022-09-15T02:58:45.068Z,94523.13
2022-09-15T03:01:15.765Z,94518.69
2022-09-15T03:03:44.398Z,94527.84
2022-09-15T03:06:16.681Z,94528.44
2022-09-15T03:08:50.934Z,94531.63
2022-09-15T03:11:20.517Z,94522.28
2022-09-15T03:13:47.931Z,94534.41
2022-09-15T03:16:16.318Z,94530.88
2022-09-15T03:18:43.018Z,94524.72
2022-09-15T03:21:13.642Z,94540.09
2022-09-15T03:23:41.624Z,94528.88
2022-09-15T03:26:09.505Z,94529.72
2022-09-15T03:28:37.286Z,94538.88
2022-09-15T03:31:04.626Z,94547.38
2022-09-15T03:33:31.644Z,94549.00
2022-09-15T03:35:58.839Z,94539.09
2022-09-15T03:38:25.933Z,94536.13
2022-09-15T03:41:01.681Z,94531.31
2022-09-15T03:43:30.080Z,94531.75
2022-09-15T03:45:56.823Z,94537.41
2022-09-15T03:48:24.529Z,94529.78
2022-09-15T03:50:51.359Z,94523.84
2022-09-15T03:53:18.568Z,94526.41
2022-09-15T03:55:45.687Z,94526.94
2022-09-15T03:58:16.285Z,94527.25
2022-09-15T04:00:43.065Z,94522.34
2022-09-15T04:03:09.693Z,94517.34
2022-09-15T04:05:36.680Z,94525.97
2022-09-15T04:08:03.513Z,94523.72
2022-09-15T04:10:30.482Z,94518.41
2022-09-15T04:12:57.783Z,94522.59
2022-09-15T04:15:24.424Z,94519.38
2022-09-15T04:17:50.978Z,94515.53
2022-09-15T04:20:17.548Z,94508.72
2022-09-15T04:22:44.834Z,94501.41
2022-09-15T04:25:11.654Z,94505.97
2022-09-15T04:27:38.706Z,94511.09
2022-09-15T04:30:07.761Z,94509.06
2022-09-15T04:32:35.791Z,94505.66
2022-09-15T04:35:04.067Z,94506.97
2022-09-15T04:37:31.263Z,94506.63
2022-09-15T04:39:58.012Z,94513.44
2022-09-15T04:42:24.820Z,94511.72
2022-09-15T04:44:51.378Z,94507.16
2022-09-15T04:47:18.035Z,94502.75
2022-09-15T04:49:44.583Z,94503.72
2022-09-15T04:52:11.183Z,94504.28
2022-09-15T04:54:37.719Z,94509.03
2022-09-15T04:57:04.475Z,94497.22
2022-09-15T04:59:30.965Z,94499.53
2022-09-15T05:01:57.584Z,94499.66
2022-09-15T05:04:24.194Z,94494.47
2022-09-15T05:06:50.742Z,94492.22
2022-09-15T05:09:17.414Z,94488.56
2022-09-15T05:11:43.922Z,94497.41
2022-09-15T05:14:11.499Z,94499.19
2022-09-15T05:16:38.220Z,94495.38
2022-09-15T05:19:04.855Z,94497.22
2022-09-15T05:21:32.154Z,94502.53
2022-09-15T05:23:58.801Z,94497.69
2022-09-15T05:26:29.717Z,94496.31
2022-09-15T05:28:57.112Z,94493.66
2022-09-15T05:31:29.178Z,94501.41
2022-09-15T05:33:56.018Z,94505.25
2022-09-15T05:36:25.319Z,94504.31
2022-09-15T05:38:58.659Z,94511.44
2022-09-15T05:41:26.679Z,94511.38
2022-09-15T05:43:55.129Z,94522.94
2022-09-15T05:46:21.749Z,94516.75
2022-09-15T05:48:48.441Z,94522.75
2022-09-15T05:51:15.317Z,94524.16
2022-09-15T05:53:42.058Z,94511.19
2022-09-15T05:56:12.113Z,94530.38
2022-09-15T05:58:40.782Z,94544.38
2022-09-15T06:01:13.907Z,94541.56
2022-09-15T06:03:40.834Z,94530.63
2022-09-15T06:06:07.812Z,94531.91
2022-09-15T06:08:36.783Z,94541.75
2022-09-15T06:11:10.349Z,94540.28
2022-09-15T06:13:37.648Z,94554.41
2022-09-15T06:16:09.839Z,94561.22
2022-09-15T06:18:37.986Z,94567.97
2022-09-15T06:21:10.586Z,94566.78
2022-09-15T06:23:37.999Z,94567.03
2022-09-15T06:26:06.788Z,94568.97
2022-09-15T06:28:33.837Z,94573.03
2022-09-15T06:31:00.615Z,94565.91
2022-09-15T06:33:27.579Z,94568.25
2022-09-15T06:35:54.482Z,94566.84
2022-09-15T06:38:21.089Z,94553.38
2022-09-15T06:40:58.363Z,94569.38
2022-09-15T06:43:25.770Z,94569.81
2022-09-15T06:45:52.776Z,94577.41
2022-09-15T06:48:24.780Z,94580.13
2022-09-15T06:50:56.093Z,94577.44
2022-09-15T06:53:22.686Z,94571.25
2022-09-15T06:55:49.829Z,94566.75
2022-09-15T06:58:16.725Z,94574.25
2022-09-15T07:00:43.327Z,94571.00
2022-09-15T07:03:09.968Z,94578.78
2022-09-15T07:05:36.543Z,94580.13
2022-09-15T07:08:03.265Z,94587.06
2022-09-15T07:10:29.950Z,94579.22
2022-09-15T07:12:56.547Z,94580.69
2022-09-15T07:15:24.922Z,94593.72
2022-09-15T07:17:51.461Z,94600.13
2022-09-15T07:20:17.980Z,94597.38
2022-09-15T07:22:44.708Z,94611.34
2022-09-15T07:25:11.218Z,94605.41
2022-09-15T07:27:37.741Z,94613.81
2022-09-15T07:30:08.489Z,94610.78
2022-09-15T07:32:35.023Z,94614.66
2022-09-15T07:35:02.334Z,94616.44
2022-09-15T07:37:28.941Z,94622.53
2022-09-15T07:39:55.576Z,94622.97
2022-09-15T07:42:22.163Z,94625.94
2022-09-15T07:44:48.686Z,94633.97
2022-09-15T07:47:15.227Z,94623.13
2022-09-15T07:49:42.211Z,94638.09
2022-09-15T07:52:09.021Z,94636.00
2022-09-15T07:54:35.743Z,94629.06
2022-09-15T07:57:02.391Z,94633.50
2022-09-15T07:59:29.028Z,94628.16
2022-09-15T08:01:55.635Z,94628.09
2022-09-15T08:04:22.199Z,94632.28
2022-09-15T08:06:48.839Z,94629.53
2022-09-15T08:09:17.691Z,94623.81
2022-09-15T08:11:44.439Z,94623.16
2022-09-15T08:14:11.034Z,94637.84
2022-09-15T08:16:38.599Z,94636.72
2022-09-15T08:19:05.591Z,94640.03
2022-09-15T08:21:32.139Z,94640.41
2022-09-15T08:23:59.972Z,94641.38
2022-09-15T08:26:28.179Z,94636.91
2022-09-15T08:28:55.075Z,94635.41
2022-09-15T08:31:24.015Z,94644.03
2022-09-15T08:33:53.037Z,94639.44
2022-09-15T08:36:20.172Z,94643.47
2022-09-15T08:38:47.446Z,94642.25
2022-09-15T08:41:29.496Z,94644.34
2022-09-15T08:44:02.674Z,94655.50
2022-09-15T08:46:38.272Z,94648.78
2022-09-15T08:49:30.771Z,94654.13
2022-09-15T08:52:13.169Z,94647.53
2022-09-15T08:54:39.779Z,94659.66
2022-09-15T08:57:10.113Z,94657.69
2022-09-15T08:59:40.005Z,94652.63
2022-09-15T09:02:12.700Z,94647.69
2022-09-15T09:05:02.406Z,94653.66
2022-09-15T09:07:49.564Z,94654.53
2022-09-15T09:10:25.607Z,94657.50
2022-09-15T09:13:00.797Z,94649.16
2022-09-15T09:15:27.317Z,94660.13
2022-09-15T09:18:32.550Z,94656.22
2022-09-15T09:21:13.566Z,94652.97
2022-09-15T09:23:54.782Z,94655.00
2022-09-15T09:26:21.456Z,94653.88
2022-09-15T09:28:55.087Z,94649.56
2022-09-15T09:31:24.805Z,94662.22
2022-09-15T09:34:31.868Z,94659.72
2022-09-15T09:37:00.542Z,94653.88
2022-09-15T09:39:28.300Z,94652.25
2022-09-15T09:41:55.182Z,94657.75
2022-09-15T09:44:31.927Z,94647.34
2022-09-15T09:47:00.535Z,94645.59
2022-09-15T09:49:42.513Z,94640.28
2022-09-15T09:52:09.220Z,94644.63
2022-09-15T09:54:36.031Z,94645.94
2022-09-15T09:57:15.127Z,94656.81
2022-09-15T09:59:42.855Z,94658.56
2022-09-15T10:02:12.423Z,94666.13
2022-09-15T10:04:40.537Z,94664.59
2022-09-15T10:07:08.561Z,94652.69
2022-09-15T10:09:37.082Z,94656.31
2022-09-15T10:12:05.887Z,94643.44
2022-09-15T10:14:36.675Z,94649.38
2022-09-15T10:17:03.561Z,94647.16
2022-09-15T10:19:33.483Z,94633.31
2022-09-15T10:22:01.592Z,94647.00
2022-09-15T10:24:32.654Z,94640.75
2022-09-15T10:32:28.680Z,94642.25
2022-09-15T10:35:21.242Z,94654.16
2022-09-15T10:37:59.908Z,94650.25
2022-09-15T10:40:44.474Z,94646.06
2022-09-15T10:43:32.375Z,94650.41
2022-09-15T10:46:07.810Z,94649.75
2022-09-15T10:48:52.201Z,94648.75
2022-09-15T10:51:31.225Z,94651.34
2022-09-15T10:54:26.443Z,94643.19
2022-09-15T10:57:01.882Z,94643.28
2022-09-15T10:59:43.189Z,94643.13
2022-09-15T11:02:31.572Z,94642.50
2022-09-15T11:05:28.599Z,94637.94
2022-09-15T11:08:25.605Z,94638.69
2022-09-15T11:10:58.002Z,94638.22
2022-09-15T11:13:59.538Z,94638.03
2022-09-15T11:16:31.264Z,94639.53
2022-09-15T11:19:30.410Z,94642.59
2022-09-15T11:22:12.421Z,94638.72
2022-09-15T11:24:49.892Z,94638.94
2022-09-15T11:27:25.349Z,94648.47
2022-09-15T11:30:15.941Z,94647.94
2022-09-15T11:33:04.622Z,94644.22
2022-09-15T11:35:37.332Z,94651.16
2022-09-15T11:38:14.049Z,94648.63
2022-09-15T11:41:31.779Z,94648.09
2022-09-15T11:44:19.379Z,94663.41
2022-09-15T11:46:51.719Z,94646.09
2022-09-15T11:49:26.749Z,94650.78
2022-09-15T11:52:01.470Z,94662.44
2022-09-15T11:54:41.323Z,94654.97
2022-09-15T11:57:20.042Z,94665.09
2022-09-15T11:59:52.035Z,94662.19
2022-09-15T12:02:43.516Z,94666.31
2022-09-15T12:05:29.566Z,94657.25
2022-09-15T12:08:02.589Z,94657.44
2022-09-15T12:10:44.686Z,94657.19
2022-09-15T12:13:18.023Z,94661.25
2022-09-15T12:15:45.530Z,94668.19
2022-09-15T12:18:39.857Z,94664.84
2022-09-15T12:21:12.527Z,94665.69
2022-09-15T12:23:58.047Z,94667.31
2022-09-15T12:26:26.922Z,94671.16
2022-09-15T12:28:54.632Z,94672.38
2022-09-15T12:31:29.551Z,94669.34
2022-09-15T12:34:00.590Z,94675.22
2022-09-15T12:36:41.306Z,94672.16
2022-09-15T12:39:36.627Z,94670.94
2022-09-15T12:42:03.213Z,94674.81
2022-09-15T12:44:47.673Z,94665.34
2022-09-15T12:47:41.692Z,94670.94
2022-09-15T12:50:14.294Z,94658.50
2022-09-15T12:53:03.580Z,94650.81
2022-09-15T12:55:35.238Z,94655.13
2022-09-15T12:58:14.774Z,94656.72
2022-09-15T13:01:06.850Z,94659.06
2022-09-15T13:06:21.279Z,94649.25
2022-09-15T13:09:01.560Z,94651.28
2022-09-15T13:11:37.566Z,94652.22
2022-09-15T13:14:04.329Z,94653.31
2022-09-15T13:16:59.522Z,94655.03
2022-09-15T13:19:44.505Z,94653.28
2022-09-15T13:22:10.967Z,94661.56
2022-09-15T13:24:57.773Z,94656.03
2022-09-15T13:28:08.844Z,94652.78
2022-09-15T13:31:07.635Z,94649.44
2022-09-15T13:40:27.344Z,94634.00
2022-09-15T13:42:57.668Z,94632.22
2022-09-15T13:45:54.117Z,94616.53
2022-09-15T13:48:39.820Z,94625.38
2022-09-15T13:51:23.683Z,94609.28
2022-09-15T13:53:59.952Z,94614.69
2022-09-15T13:56:35.568Z,94611.16
2022-09-15T13:59:11.900Z,94619.72
2022-09-15T14:01:42.537Z,94601.31
2022-09-15T14:04:16.754Z,94599.97
2022-09-15T14:06:49.994Z,94602.31
2022-09-15T14:09:21.675Z,94600.31
2022-09-15T14:11:52.867Z,94607.09
2022-09-15T14:14:36.368Z,94595.75
2022-09-15T14:17:04.184Z,94595.50
2022-09-15T14:19:38.899Z,94589.56
2022-09-15T14:22:17.876Z,94589.19
2022-09-15T14:24:44.967Z,94584.25
2022-09-15T14:27:13.054Z,94585.19
2022-09-15T14:29:42.573Z,94572.00
2022-09-15T14:32:15.130Z,94579.00
2022-09-15T14:34:43.278Z,94576.31
2022-09-15T14:37:20.946Z,94570.25
2022-09-15T14:39:56.621Z,94569.16
2022-09-15T14:42:29.625Z,94572.31
2022-09-15T14:48:02.805Z,94561.38
2022-09-15T14:50:33.258Z,94570.03
2022-09-15T14:53:06.607Z,94572.47
2022-09-15T14:55:57.977Z,94574.84
2022-09-15T14:58:27.442Z,94574.84
2022-09-15T15:00:59.382Z,94580.63
2022-09-15T15:03:47.833Z,94592.34
2022-09-15T15:06:29.823Z,94592.38
2022-09-15T15:09:23.927Z,94594.66
2022-09-15T15:11:53.118Z,94600.47
2022-09-15T15:14:20.094Z,94589.53
2022-09-15T15:17:02.093Z,94580.88
2022-09-15T15:19:42.415Z,94576.09
2022-09-15T15:22:11.911Z,94582.00
2022-09-15T15:24:46.168Z,94588.72
2022-09-15T15:27:34.378Z,94582.88
2022-09-15T15:30:32.020Z,94595.72
2022-09-15T15:33:00.095Z,94596.19
2022-09-15T15:35:27.558Z,94596.34
2022-09-15T15:38:20.391Z,94603.50
2022-09-15T15:40:47.251Z,94599.06
2022-09-15T15:43:13.791Z,94604.94
2022-09-15T15:46:00.740Z,94604.94
2022-09-15T15:48:32.664Z,94609.22
2022-09-15T15:51:04.761Z,94617.34
2022-09-15T15:53:31.403Z,94627.56
2022-09-15T15:55:59.622Z,94618.53
2022-09-15T15:58:26.940Z,94611.97
2022-09-15T16:00:56.465Z,94615.25
2022-09-15T16:03:24.911Z,94630.84
2022-09-15T16:05:53.993Z,94623.84
2022-09-15T16:08:40.107Z,94638.69
2022-09-15T16:11:09.903Z,94629.50
2022-09-15T16:13:36.473Z,94621.50
2022-09-15T16:16:13.998Z,94629.50
2022-09-15T16:18:40.543Z,94618.50
2022-09-15T16:21:07.117Z,94616.44
2022-09-15T16:23:33.891Z,94620.00
2022-09-15T16:26:03.033Z,94616.13
2022-09-15T16:28:30.062Z,94626.53
2022-09-15T16:30:57.287Z,94617.00
2022-09-15T16:33:25.119Z,94624.38
2022-09-15T16:36:03.735Z,94611.66
2022-09-15T16:38:30.512Z,94607.81
2022-09-15T16:40:57.291Z,94616.91
2022-09-15T16:43:23.871Z,94614.06
2022-09-15T16:45:51.781Z,94617.63
2022-09-15T16:48:18.976Z,94623.72
2022-09-15T16:50:56.025Z,94613.47
2022-09-15T16:53:33.342Z,94613.00
2022-09-15T16:55:59.894Z,94615.50
2022-09-15T16:58:26.561Z,94617.91
2022-09-15T17:00:53.239Z,94614.22
2022-09-15T17:03:24.654Z,94613.75
2022-09-15T17:05:56.256Z,94607.75
2022-09-15T17:08:27.220Z,94621.16
2022-09-15T17:10:56.327Z,94623.72
2022-09-15T17:13:29.344Z,94625.59
2022-09-15T17:15:58.252Z,94610.78
2022-09-15T17:18:25.894Z,94620.59
2022-09-15T17:20:52.833Z,94616.44
2022-09-15T17:23:23.377Z,94616.16
2022-09-15T17:25:52.894Z,94614.50
2022-09-15T17:28:22.359Z,94616.75
2022-09-15T17:30:56.083Z,94618.22
2022-09-15T17:33:23.445Z,94616.72
2022-09-15T17:35:50.132Z,94612.13
2022-09-15T17:38:20.173Z,94615.81
2022-09-15T17:40:48.685Z,94615.53
2022-09-15T17:43:19.827Z,94615.25
2022-09-15T17:45:47.345Z,94600.69
2022-09-15T17:48:13.985Z,94611.09
2022-09-15T17:50:41.910Z,94612.59
2022-09-15T17:53:15.900Z,94612.44
2022-09-15T17:55:42.974Z,94618.66
2022-09-15T17:58:10.272Z,94620.56
2022-09-15T18:00:39.348Z,94618.22
2022-09-15T18:03:16.254Z,94637.06
2022-09-15T18:05:42.899Z,94635.41
2022-09-15T18:08:09.849Z,94635.56
2022-09-15T18:10:37.322Z,94629.63
2022-09-15T18:13:05.542Z,94627.72
2022-09-15T18:15:34.562Z,94629.78
2022-09-15T18:18:04.356Z,94623.97
2022-09-15T18:20:32.928Z,94626.63
2022-09-15T18:23:00.234Z,94633.97
2022-09-15T18:25:32.738Z,94626.38
2022-09-15T18:28:00.301Z,94636.56
2022-09-15T18:30:29.489Z,94637.13
2022-09-15T18:32:56.338Z,94636.63
2022-09-15T18:35:24.065Z,94638.34
2022-09-15T18:37:57.953Z,94650.63
2022-09-15T18:40:25.544Z,94649.19
2022-09-15T18:42:52.573Z,94648.31
2022-09-15T18:45:19.903Z,94648.31
2022-09-15T18:47:49.114Z,94655.88
2022-09-15T18:50:17.376Z,94650.81
2022-09-15T18:52:44.522Z,94659.56
2022-09-15T18:55:17.511Z,94668.19
2022-09-15T18:57:44.632Z,94661.00
2022-09-15T19:00:16.890Z,94663.97
2022-09-15T19:02:44.036Z,94658.75
2022-09-15T19:05:17.178Z,94656.25
2022-09-15T19:07:44.903Z,94663.44
2022-09-15T19:10:14.378Z,94666.72
2022-09-15T19:12:41.198Z,94666.69
2022-09-15T19:15:11.410Z,94671.69
2022-09-15T19:17:42.034Z,94678.94
2022-09-15T19:20:10.885Z,94674.03
2022-09-15T19:22:38.187Z,94670.53
2022-09-15T19:25:06.375Z,94678.56
2022-09-15T19:27:33.650Z,94679.72
2022-09-15T19:30:01.074Z,94676.50
2022-09-15T19:32:27.800Z,94670.25
2022-09-15T19:34:54.494Z,94672.53
2022-09-15T19:37:22.179Z,94673.06
2022-09-15T19:39:49.273Z,94678.44
2022-09-15T19:44:42.675Z,94668.91
2022-09-15T19:47:09.442Z,94673.66
2022-09-15T19:49:36.076Z,94669.34
2022-09-15T19:52:02.893Z,94685.25
2022-09-15T19:54:30.630Z,94686.56
2022-09-15T19:56:57.495Z,94686.66
2022-09-15T19:59:28.774Z,94677.75
2022-09-15T20:01:57.630Z,94675.34
2022-09-15T20:07:09.217Z,94687.25
2022-09-15T20:09:36.267Z,94699.59
2022-09-15T20:12:03.428Z,94681.00
2022-09-15T20:14:31.401Z,94692.66
2022-09-15T20:17:01.154Z,94702.59
2022-09-15T20:19:28.487Z,94689.84
2022-09-15T20:21:55.042Z,94693.69
2022-09-15T20:24:22.553Z,94702.59
2022-09-15T20:26:49.526Z,94688.03
2022-09-15T20:29:16.445Z,94693.38
2022-09-15T20:31:43.547Z,94698.56
2022-09-15T20:34:10.068Z,94684.72
2022-09-15T20:36:38.906Z,94712.34
2022-09-15T20:39:10.464Z,94712.63
2022-09-15T20:41:37.550Z,94712.09
2022-09-15T20:44:05.969Z,94712.75
2022-09-15T20:46:32.614Z,94716.34
2022-09-15T20:48:59.168Z,94721.69
2022-09-15T20:51:29.530Z,94722.28
2022-09-15T20:53:57.613Z,94728.75
2022-09-15T20:56:26.742Z,94725.78
2022-09-15T20:58:55.005Z,94713.88
2022-09-15T21:01:24.975Z,94737.94
2022-09-15T21:03:52.114Z,94726.91
2022-09-15T21:06:20.995Z,94736.34
2022-09-15T21:08:48.677Z,94742.66
2022-09-15T21:11:17.582Z,94745.38
2022-09-15T21:13:44.555Z,94749.53
2022-09-15T21:16:15.157Z,94756.00
2022-09-15T21:18:43.690Z,94746.06
2022-09-15T21:21:23.579Z,94752.22
2022-09-15T21:23:51.886Z,94758.75
2022-09-15T21:26:23.844Z,94751.34
2022-09-15T21:28:51.171Z,94754.97
2022-09-15T21:31:23.643Z,94747.53
2022-09-15T21:33:51.622Z,94756.28
2022-09-15T21:36:23.198Z,94757.13
2022-09-15T21:38:51.554Z,94763.47
2022-09-15T21:41:21.594Z,94765.97
2022-09-15T21:43:49.889Z,94767.25
2022-09-15T21:46:18.849Z,94767.69
2022-09-15T21:48:49.671Z,94778.34
2022-09-15T21:51:24.716Z,94776.00
2022-09-15T21:53:54.494Z,94774.84
2022-09-15T21:56:22.737Z,94778.72
2022-09-15T21:58:49.734Z,94767.09
2022-09-15T22:01:22.056Z,94786.41
2022-09-15T22:03:53.925Z,94781.09
2022-09-15T22:06:22.305Z,94773.66
2022-09-15T22:08:49.143Z,94766.59
2022-09-15T22:11:15.772Z,94769.56
2022-09-15T22:13:43.789Z,94774.03
2022-09-15T22:16:19.741Z,94771.31
2022-09-15T22:18:46.503Z,94775.66
2022-09-15T22:21:17.359Z,94773.09
2022-09-15T22:23:45.211Z,94772.91
2022-09-15T22:26:15.352Z,94771.53
2022-09-15T22:28:42.167Z,94776.25
2022-09-15T22:31:10.881Z,94776.78
2022-09-15T22:33:40.926Z,94771.69
2022-09-15T22:36:12.527Z,94774.09
2022-09-15T22:38:39.265Z,94774.78
2022-09-15T22:41:09.208Z,94780.72
2022-09-15T22:43:36.867Z,94777.75
2022-09-15T22:46:04.036Z,94779.97
2022-09-15T22:48:30.771Z,94787.22
2022-09-15T22:50:57.375Z,94783.69
2022-09-15T22:53:24.013Z,94786.03
2022-09-15T22:55:51.489Z,94787.75
2022-09-15T22:58:18.080Z,94780.41
2022-09-15T23:00:45.002Z,94773.47
2022-09-15T23:03:11.947Z,94781.88
2022-09-15T23:05:38.619Z,94771.88
2022-09-15T23:08:05.266Z,94779.53
2022-09-15T23:10:32.767Z,94774.00
2022-09-15T23:12:59.792Z,94780.72
2022-09-15T23:15:26.417Z,94773.16
2022-09-15T23:17:53.025Z,94775.38
2022-09-15T23:20:19.570Z,94777.94
2022-09-15T23:22:46.111Z,94779.31
2022-09-15T23:25:13.000Z,94768.25
2022-09-15T23:27:39.606Z,94766.47
2022-09-15T23:30:06.549Z,94767.63
2022-09-15T23:32:33.170Z,94768.00
2022-09-15T23:34:59.735Z,94766.72
2022-09-15T23:37:26.295Z,94757.94
2022-09-15T23:39:52.957Z,94761.66
2022-09-15T23:42:19.538Z,94767.75
2022-09-15T23:44:46.293Z,94768.91
2022-09-15T23:47:12.853Z,94762.94
2022-09-15T23:49:39.806Z,94766.56
2022-09-15T23:52:06.378Z,94765.94
2022-09-15T23:54:32.929Z,94752.72
2022-09-15T23:56:59.524Z,94774.03
2022-09-15T23:59:26.095Z,94767.88
